createdAt,value
2023-12-13T00:04:33.278Z,49.50
2023-12-13T00:09:35.914Z,49.72
2023-12-13T00:14:38.491Z,49.90
2023-12-13T00:19:41.096Z,50.23
2023-12-13T00:24:43.748Z,49.91
2023-12-13T00:29:46.368Z,50.30
2023-12-13T00:34:49.354Z,50.57
2023-12-13T00:39:51.930Z,50.54
2023-12-13T00:44:54.970Z,50.36
2023-12-13T00:49:57.596Z,50.48
2023-12-13T00:55:02.793Z,50.51
2023-12-13T01:00:07.088Z,50.34
2023-12-13T01:05:10.147Z,50.28
2023-12-13T01:10:12.939Z,50.15
2023-12-13T01:15:16.038Z,50.26
2023-12-13T01:20:18.701Z,51.24
2023-12-13T01:25:21.255Z,51.07
2023-12-13T01:30:23.779Z,51.25
2023-12-13T01:35:26.383Z,50.99
2023-12-13T01:40:28.865Z,51.59
2023-12-13T01:45:31.389Z,51.60
2023-12-13T01:50:33.994Z,51.50
2023-12-13T01:55:36.572Z,51.54
2023-12-13T02:00:41.728Z,51.69
2023-12-13T02:05:45.588Z,52.14
2023-12-13T02:10:49.307Z,52.92
2023-12-13T02:15:52.296Z,52.82
2023-12-13T02:20:55.090Z,53.18
2023-12-13T02:26:08.960Z,55.23
2023-12-13T02:31:12.202Z,56.21
2023-12-13T02:36:14.892Z,56.55
2023-12-13T02:41:17.544Z,56.48
2023-12-13T02:46:20.192Z,56.25
2023-12-13T02:51:22.816Z,56.04
2023-12-13T02:56:25.308Z,55.93
2023-12-13T03:01:28.909Z,55.42
2023-12-13T03:06:31.491Z,55.64
2023-12-13T03:11:34.154Z,56.07
2023-12-13T03:16:36.752Z,58.95
2023-12-13T03:21:39.386Z,60.12
2023-12-13T03:26:42.127Z,60.53
2023-12-13T03:31:44.905Z,61.05
2023-12-13T03:36:48.524Z,59.92
2023-12-13T03:41:51.111Z,59.45
2023-12-13T03:46:55.815Z,59.24
2023-12-13T03:51:58.540Z,59.73
2023-12-13T03:57:01.121Z,59.41
2023-12-13T04:02:05.432Z,61.51
2023-12-13T04:07:10.637Z,62.50
2023-12-13T04:12:13.149Z,64.35
2023-12-13T04:17:15.946Z,67.59
2023-12-13T04:22:18.642Z,70.72
2023-12-13T04:27:21.257Z,74.93
2023-12-13T04:32:23.848Z,77.07
2023-12-13T04:37:26.527Z,82.54
2023-12-13T04:42:29.101Z,93.44
2023-12-13T04:47:31.973Z,100.00
2023-12-13T04:52:34.711Z,95.71
2023-12-13T04:57:37.312Z,91.32
2023-12-13T05:02:41.435Z,91.59
2023-12-13T05:07:44.072Z,96.23
2023-12-13T05:12:46.690Z,100.00
2023-12-13T05:17:49.575Z,100.00
2023-12-13T05:22:52.468Z,100.00
2023-12-13T05:27:55.209Z,100.00
2023-12-13T05:32:58.321Z,100.00
2023-12-13T05:38:01.650Z,100.00
2023-12-13T05:43:04.147Z,100.00
2023-12-13T05:48:07.587Z,100.00
2023-12-13T05:53:10.249Z,100.00
2023-12-13T05:58:12.762Z,94.99
2023-12-13T06:03:15.280Z,87.97
2023-12-13T06:08:17.858Z,79.82
2023-12-13T06:13:20.569Z,73.24
2023-12-13T06:18:23.547Z,71.50
2023-12-13T06:23:26.277Z,69.42
2023-12-13T06:28:29.020Z,68.57
2023-12-13T06:33:31.891Z,68.42
2023-12-13T06:38:35.030Z,66.38
2023-12-13T06:43:37.508Z,64.97
2023-12-13T06:48:40.296Z,64.23
2023-12-13T06:53:42.987Z,63.68
2023-12-13T06:58:46.026Z,62.76
2023-12-13T07:03:49.031Z,62.24
2023-12-13T07:08:51.885Z,62.58
2023-12-13T07:13:54.564Z,64.22
2023-12-13T07:18:57.256Z,65.97
2023-12-13T07:23:59.792Z,70.12
2023-12-13T07:29:02.730Z,74.10
2023-12-13T07:34:05.464Z,76.90
2023-12-13T07:39:09.491Z,78.93
2023-12-13T07:44:12.174Z,78.74
2023-12-13T07:49:15.601Z,80.25
2023-12-13T07:54:18.372Z,80.11
2023-12-13T07:59:22.461Z,80.95
2023-12-13T08:04:25.137Z,83.75
2023-12-13T08:09:27.924Z,87.98
2023-12-13T08:14:33.114Z,90.40
2023-12-13T08:19:37.194Z,94.74
2023-12-13T08:24:40.057Z,93.55
2023-12-13T08:29:42.813Z,97.44
2023-12-13T08:34:46.790Z,99.23
2023-12-13T08:39:50.758Z,100.00
2023-12-13T08:44:53.333Z,99.87
2023-12-13T08:49:56.411Z,100.00
2023-12-13T08:54:59.036Z,98.33
2023-12-13T09:00:08.794Z,96.31
2023-12-13T09:05:13.284Z,99.45
2023-12-13T09:10:15.993Z,92.09
2023-12-13T09:15:20.161Z,93.69
2023-12-13T09:20:22.998Z,94.61
2023-12-13T09:25:27.034Z,97.53
2023-12-13T09:30:29.638Z,93.61
2023-12-13T09:35:32.341Z,90.46
2023-12-13T09:40:35.172Z,87.34
2023-12-13T09:45:40.648Z,88.49
2023-12-13T09:50:45.523Z,94.15
2023-12-13T09:55:49.109Z,97.57
2023-12-13T10:00:51.814Z,98.22
2023-12-13T10:05:58.866Z,100.00
2023-12-13T10:11:02.385Z,100.00
2023-12-13T10:16:10.416Z,100.00
2023-12-13T10:21:14.107Z,100.00
2023-12-13T10:26:16.704Z,97.08
2023-12-13T10:31:23.478Z,98.82
2023-12-13T10:36:27.893Z,100.00
2023-12-13T10:41:32.054Z,100.00
2023-12-13T10:46:47.781Z,100.00
2023-12-13T10:51:52.121Z,100.00
2023-12-13T10:56:57.238Z,100.00
2023-12-13T11:02:00.466Z,100.00
2023-12-13T11:07:09.995Z,100.00
2023-12-13T11:12:13.730Z,100.00
2023-12-13T11:17:16.634Z,100.00
2023-12-13T11:22:25.297Z,100.00
2023-12-13T11:27:33.435Z,100.00
2023-12-13T11:32:37.680Z,100.00
2023-12-13T11:37:42.002Z,100.00
2023-12-13T11:42:44.779Z,100.00
2023-12-13T11:47:49.439Z,100.00
2023-12-13T11:52:52.343Z,100.00
2023-12-13T11:57:59.835Z,100.00
2023-12-13T12:03:02.584Z,100.00
2023-12-13T12:08:08.464Z,100.00
2023-12-13T12:13:13.034Z,100.00
2023-12-13T12:18:16.647Z,100.00
2023-12-13T12:23:19.835Z,100.00
2023-12-13T12:28:22.636Z,100.00
2023-12-13T12:33:25.588Z,100.00
2023-12-13T12:38:28.368Z,100.00
2023-12-13T12:43:31.066Z,100.00
2023-12-13T12:48:34.667Z,100.00
2023-12-13T12:53:37.522Z,100.00
2023-12-13T12:58:40.435Z,100.00
2023-12-13T13:03:43.343Z,100.00
2023-12-13T13:08:46.278Z,100.00
2023-12-13T13:13:49.048Z,100.00
2023-12-13T13:18:51.717Z,100.00
2023-12-13T13:23:54.497Z,100.00
2023-12-13T13:28:57.883Z,100.00
2023-12-13T13:34:01.184Z,100.00
2023-12-13T13:39:04.173Z,100.00
2023-12-13T13:44:07.217Z,100.00
2023-12-13T13:49:10.309Z,100.00
2023-12-13T13:54:13.147Z,100.00
2023-12-13T13:59:15.785Z,100.00
2023-12-13T14:04:18.490Z,95.88
2023-12-13T14:09:21.263Z,93.44
2023-12-13T14:14:23.995Z,97.71
2023-12-13T14:19:26.932Z,100.00
2023-12-13T14:24:29.634Z,100.00
2023-12-13T14:29:33.520Z,96.95
2023-12-13T14:34:36.224Z,97.57
2023-12-13T14:39:38.924Z,100.00
2023-12-13T14:44:41.639Z,100.00
2023-12-13T14:49:44.603Z,100.00
2023-12-13T14:54:47.534Z,100.00
2023-12-13T14:59:53.270Z,100.00
2023-12-13T15:04:57.413Z,100.00
2023-12-13T15:10:01.033Z,100.00
2023-12-13T15:15:04.509Z,100.00
2023-12-13T15:20:11.290Z,100.00
2023-12-13T15:25:17.068Z,100.00
2023-12-13T15:30:22.408Z,100.00
2023-12-13T15:35:25.011Z,100.00
2023-12-13T15:40:27.608Z,100.00
2023-12-13T15:45:30.267Z,100.00
2023-12-13T15:50:32.936Z,100.00
2023-12-13T15:55:35.550Z,100.00
2023-12-13T16:00:38.801Z,100.00
2023-12-13T16:05:41.390Z,100.00
2023-12-13T16:10:48.191Z,100.00
2023-12-13T16:15:52.859Z,100.00
2023-12-13T16:20:56.009Z,100.00
2023-12-13T16:25:59.099Z,100.00
2023-12-13T16:31:02.665Z,100.00
2023-12-13T16:36:07.117Z,100.00
2023-12-13T16:41:09.932Z,100.00
2023-12-13T16:46:14.487Z,100.00
2023-12-13T16:51:21.036Z,100.00
2023-12-13T16:56:23.672Z,100.00
2023-12-13T17:01:26.337Z,100.00
2023-12-13T17:06:29.692Z,100.00
2023-12-13T17:11:32.649Z,100.00
2023-12-13T17:16:35.291Z,100.00
2023-12-13T17:21:41.036Z,100.00
2023-12-13T17:26:44.993Z,100.00
2023-12-13T17:31:49.180Z,100.00
2023-12-13T17:36:53.073Z,100.00
2023-12-13T17:41:56.033Z,100.00
2023-12-13T17:47:00.225Z,100.00
2023-12-13T17:52:09.544Z,100.00
2023-12-13T17:57:16.858Z,100.00
2023-12-13T18:02:22.050Z,100.00
2023-12-13T18:07:25.899Z,100.00
2023-12-13T18:12:29.300Z,100.00
2023-12-13T18:17:32.810Z,100.00
2023-12-13T18:22:36.547Z,100.00
2023-12-13T18:27:39.364Z,100.00
2023-12-13T18:32:42.480Z,100.00
2023-12-13T18:37:46.874Z,100.00
2023-12-13T18:42:51.024Z,100.00
2023-12-13T18:47:53.767Z,100.00
2023-12-13T18:52:56.439Z,100.00
2023-12-13T18:57:59.087Z,100.00
2023-12-13T19:03:01.663Z,100.00
2023-12-13T19:08:04.692Z,100.00
2023-12-13T19:13:07.356Z,100.00
2023-12-13T19:18:10.493Z,100.00
2023-12-13T19:23:14.481Z,100.00
2023-12-13T19:28:17.083Z,100.00
2023-12-13T19:33:19.635Z,100.00
2023-12-13T19:38:22.167Z,100.00
2023-12-13T19:43:24.885Z,100.00
2023-12-13T19:48:27.582Z,100.00
2023-12-13T19:53:30.178Z,100.00
2023-12-13T19:58:32.869Z,100.00
2023-12-13T20:03:35.429Z,100.00
2023-12-13T20:08:38.075Z,100.00
2023-12-13T20:13:49.907Z,100.00
2023-12-13T20:18:56.681Z,100.00
2023-12-13T20:24:00.835Z,100.00
2023-12-13T20:29:04.801Z,100.00
2023-12-13T20:34:08.409Z,100.00
2023-12-13T20:39:11.097Z,100.00
2023-12-13T20:44:13.731Z,100.00
2023-12-13T20:49:16.386Z,100.00
2023-12-13T20:54:18.959Z,100.00
2023-12-13T20:59:21.597Z,100.00
2023-12-13T21:04:24.097Z,100.00
2023-12-13T21:09:26.627Z,100.00
2023-12-13T21:14:29.150Z,100.00
2023-12-13T21:19:31.918Z,97.23
2023-12-13T21:24:34.559Z,92.59
2023-12-13T21:29:37.305Z,90.94
2023-12-13T21:34:40.122Z,88.96
2023-12-13T21:39:42.867Z,86.62
2023-12-13T21:44:45.493Z,85.30
2023-12-13T21:49:48.418Z,84.75
2023-12-13T21:54:50.852Z,84.96
2023-12-13T21:59:53.424Z,84.06
2023-12-13T22:04:56.095Z,84.03
2023-12-13T22:09:58.703Z,84.64
2023-12-13T22:15:01.488Z,84.36
2023-12-13T22:20:17.157Z,84.25
2023-12-13T22:25:20.117Z,85.87
2023-12-13T22:30:23.237Z,84.96
2023-12-13T22:35:26.023Z,85.62
2023-12-13T22:40:28.680Z,86.75
2023-12-13T22:45:31.279Z,88.36
2023-12-13T22:50:34.018Z,87.70
2023-12-13T22:55:36.594Z,88.77
2023-12-13T23:00:39.599Z,88.41
2023-12-13T23:05:42.594Z,87.13
2023-12-13T23:10:45.279Z,88.59
2023-12-13T23:15:48.789Z,85.48
2023-12-13T23:20:51.508Z,84.01
2023-12-13T23:25:55.011Z,83.34
2023-12-13T23:30:57.732Z,83.37
2023-12-13T23:36:00.321Z,83.36
2023-12-13T23:41:03.056Z,81.73
2023-12-13T23:46:09.583Z,81.13
2023-12-13T23:51:12.180Z,81.06
2023-12-13T23:56:21.454Z,82.15
